createdAt,value
2023-04-25T00:02:03.710Z,99008.83
2023-04-25T00:04:15.447Z,99002.59
2023-04-25T00:06:28.253Z,98998.36
2023-04-25T00:08:38.910Z,98998.56
2023-04-25T00:10:49.650Z,98996.58
2023-04-25T00:13:00.015Z,99000.89
2023-04-25T00:15:11.403Z,98996.58
2023-04-25T00:17:24.114Z,98994.59
2023-04-25T00:19:35.175Z,98995.05
2023-04-25T00:21:49.855Z,98994.38
2023-04-25T00:24:01.950Z,98996.33
2023-04-25T00:26:11.831Z,98997.67
2023-04-25T00:28:22.155Z,99002.55
2023-04-25T00:30:33.654Z,99003.48
2023-04-25T00:32:46.754Z,99007.91
2023-04-25T00:34:58.872Z,99006.08
2023-04-25T00:37:10.749Z,99002.3
2023-04-25T00:39:21.174Z,99003.59
2023-04-25T00:41:31.470Z,99005.05
2023-04-25T00:43:42.286Z,99005.05
2023-04-25T00:45:55.617Z,99001.94
2023-04-25T00:48:07.577Z,99006.13
2023-04-25T00:50:17.632Z,99004.84
2023-04-25T00:52:27.831Z,99001.25
2023-04-25T00:54:37.500Z,99006.52
2023-04-25T00:59:53.230Z,99005.52
2023-04-25T01:02:05.196Z,99010.95
2023-04-25T01:04:18.783Z,99008.31
2023-04-25T01:06:30.391Z,99008.73
2023-04-25T01:08:40.268Z,99013.63
2023-04-25T01:10:50.948Z,99010.88
2023-04-25T01:13:02.112Z,99007.96
2023-04-25T01:15:12.550Z,99015.38
2023-04-25T01:17:22.646Z,99015.82
2023-04-25T01:19:33.372Z,99014.02
2023-04-25T01:21:44.246Z,99015.69
2023-04-25T01:23:58.690Z,99008.13
2023-04-25T01:26:09.132Z,99012.08
2023-04-25T01:28:19.221Z,99013.37
2023-04-25T01:30:29.314Z,99010.33
2023-04-25T01:32:40.708Z,99007.61
2023-04-25T01:34:50.349Z,99005.83
2023-04-25T01:37:00.265Z,99003.42
2023-04-25T01:39:10.812Z,99005.78
2023-04-25T01:41:22.608Z,98999.82
2023-04-25T01:43:33.548Z,98998.75
2023-04-25T01:45:44.221Z,98995.73
2023-04-25T01:47:54.321Z,98997.84
2023-04-25T01:50:05.827Z,98992.17
2023-04-25T01:52:16.306Z,98995.05
2023-04-25T01:54:26.288Z,98987.14
2023-04-25T01:56:36.208Z,98989.16
2023-04-25T01:58:46.043Z,98993.52
2023-04-25T02:00:56.724Z,98992.05
2023-04-25T02:03:07.726Z,98996.22
2023-04-25T02:05:18.190Z,99000.48
2023-04-25T02:07:28.566Z,98999.41
2023-04-25T02:09:38.684Z,98999.69
2023-04-25T02:11:49.344Z,98999.67
2023-04-25T02:14:02.262Z,98998.45
2023-04-25T02:16:12.064Z,98994
2023-04-25T02:18:22.616Z,98992.34
2023-04-25T02:20:33.906Z,98999.25
2023-04-25T02:22:44.506Z,99000.96
2023-04-25T02:24:55.868Z,98996.39
2023-04-25T02:27:06.486Z,98992.11
2023-04-25T02:29:16.765Z,98991.64
2023-04-25T02:31:27.239Z,98992.82
2023-04-25T02:33:39.871Z,98990.22
2023-04-25T02:35:50.227Z,98989.63
2023-04-25T02:38:00.764Z,98985.95
2023-04-25T02:40:11.061Z,98983.44
2023-04-25T02:42:21.466Z,98983.64
2023-04-25T02:44:31.767Z,98986.39
2023-04-25T02:46:42.590Z,98986.79
2023-04-25T02:48:52.725Z,98983.56
2023-04-25T02:51:04.651Z,98984.25
2023-04-25T02:53:15.566Z,98983.31
2023-04-25T02:55:31.209Z,98982.67
2023-04-25T02:57:41.226Z,98981.35
2023-04-25T02:59:52.065Z,98985.09
2023-04-25T03:02:02.887Z,98984.66
2023-04-25T03:04:14.073Z,98978.39
2023-04-25T03:06:24.248Z,98977.98
2023-04-25T03:08:34.186Z,98981.48
2023-04-25T03:10:44.382Z,98983.36
2023-04-25T03:12:54.262Z,98982.27
2023-04-25T03:15:04.154Z,98976.7
2023-04-25T03:17:15.788Z,98983.64
2023-04-25T03:19:26.662Z,98988.27
2023-04-25T03:21:37.510Z,98989.52
2023-04-25T03:23:49.094Z,98990.78
2023-04-25T03:26:01.457Z,98990.62
2023-04-25T03:28:12.192Z,98988.75
2023-04-25T03:30:22.507Z,98992.48
2023-04-25T03:32:33.941Z,98991.77
2023-04-25T03:34:46.066Z,98997.22
2023-04-25T03:36:57.026Z,98999.84
2023-04-25T03:39:09.626Z,98996.55
2023-04-25T03:41:19.968Z,98998.97
2023-04-25T03:43:30.780Z,99001.81
2023-04-25T03:45:41.275Z,99002.15
2023-04-25T03:47:55.322Z,99005
2023-04-25T03:50:05.849Z,99002.88
2023-04-25T03:52:16.213Z,99000.23
2023-04-25T03:54:26.626Z,98999.8
2023-04-25T03:56:37.709Z,98997.42
2023-04-25T03:58:50.744Z,98992.01
2023-04-25T04:01:03.584Z,98998.65
2023-04-25T04:03:16.476Z,99001.68
2023-04-25T04:05:28.076Z,98995.81
2023-04-25T04:07:41.323Z,98997.92
2023-04-25T04:09:51.984Z,99000.88
2023-04-25T04:12:02.008Z,99002.18
2023-04-25T04:14:12.288Z,99000.8
2023-04-25T04:16:23.349Z,99005.23
2023-04-25T04:18:34.155Z,99007.04
2023-04-25T04:20:46.227Z,99012.28
2023-04-25T04:23:02.004Z,99004.22
2023-04-25T04:25:18.547Z,99012.09
2023-04-25T04:27:31.663Z,99013.28
2023-04-25T04:29:42.235Z,99016.66
2023-04-25T04:31:52.625Z,99017.72
2023-04-25T04:34:04.327Z,99025.07
2023-04-25T04:36:14.957Z,99025.1
2023-04-25T04:38:28.195Z,99030.69
2023-04-25T04:40:40.184Z,99024.45
2023-04-25T04:42:50.005Z,99027.16
2023-04-25T04:44:59.892Z,99022.27
2023-04-25T04:47:09.284Z,99018.94
2023-04-25T04:49:24.789Z,99022.84
2023-04-25T04:51:35.254Z,99022.39
2023-04-25T04:53:45.949Z,99024.72
2023-04-25T04:56:00.057Z,99022.48
2023-04-25T04:58:12.466Z,99020.2
2023-04-25T05:00:33.911Z,99021.61
2023-04-25T05:02:45.878Z,99022.59
2023-04-25T05:04:56.339Z,99028.36
2023-04-25T05:07:08.865Z,99021.52
2023-04-25T05:09:19.395Z,99022.48
2023-04-25T05:11:30.792Z,99021.67
2023-04-25T05:13:41.950Z,99019.98
2023-04-25T05:15:52.990Z,99020.18
2023-04-25T05:18:05.089Z,99023.02
2023-04-25T05:20:15.379Z,99019.89
2023-04-25T05:22:27.148Z,99025.28
2023-04-25T05:24:37.510Z,99024.93
2023-04-25T05:26:48.375Z,99031.38
2023-04-25T05:28:58.471Z,99037.67
2023-04-25T05:31:09.051Z,99042.41
2023-04-25T05:33:21.826Z,99052.5
2023-04-25T05:35:32.742Z,99062.09
2023-04-25T05:37:44.948Z,99069.54
2023-04-25T05:40:00.385Z,99079.33
2023-04-25T05:42:25.329Z,99090.5
2023-04-25T05:44:38.435Z,99096.86
2023-04-25T05:46:51.490Z,99091.88
2023-04-25T05:49:02.792Z,99092.33
2023-04-25T05:51:13.049Z,99089.68
2023-04-25T05:53:25.425Z,99093.37
2023-04-25T05:55:37.464Z,99091.09
2023-04-25T05:57:54.046Z,99087.23
2023-04-25T06:00:04.761Z,99083.11
2023-04-25T06:02:15.126Z,99085.22
2023-04-25T06:04:27.636Z,99086.08
2023-04-25T06:06:38.706Z,99088.53
2023-04-25T06:08:51.083Z,99086.88
2023-04-25T06:11:03.440Z,99084.56
2023-04-25T06:13:22.541Z,99079.8
2023-04-25T06:15:33.787Z,99083.56
2023-04-25T06:17:45.313Z,99076.64
2023-04-25T06:19:57.459Z,99072.38
2023-04-25T06:22:07.179Z,99070.19
2023-04-25T06:24:17.678Z,99061.86
2023-04-25T06:26:29.966Z,99062.53
2023-04-25T06:28:41.780Z,99064.3
2023-04-25T06:30:52.199Z,99069.13
2023-04-25T06:33:04.087Z,99066.75
2023-04-25T06:35:16.046Z,99066.81
2023-04-25T06:37:27.221Z,99070.45
2023-04-25T06:39:40.622Z,99074.34
2023-04-25T06:41:51.691Z,99075.07
2023-04-25T06:44:02.203Z,99076.39
2023-04-25T06:46:12.594Z,99078.05
2023-04-25T06:48:25.663Z,99081.66
2023-04-25T06:50:36.569Z,99078.05
2023-04-25T06:52:47.860Z,99077.81
2023-04-25T06:54:58.705Z,99082.27
2023-04-25T06:57:11.408Z,99083.77
2023-04-25T06:59:23.282Z,99086.11
2023-04-25T07:01:42.843Z,99085.64
2023-04-25T07:04:02.719Z,99087.55
2023-04-25T07:06:17.503Z,99084.85
2023-04-25T07:08:32.515Z,99086.02
2023-04-25T07:10:47.814Z,99078.28
2023-04-25T07:13:01.368Z,99079.84
2023-04-25T07:15:15.825Z,99081.14
2023-04-25T07:17:26.474Z,99082.69
2023-04-25T07:19:37.786Z,99080.77
2023-04-25T07:21:48.998Z,99086.17
2023-04-25T07:24:05.918Z,99089.03
2023-04-25T07:26:18.251Z,99085.8
2023-04-25T07:28:28.511Z,99086.88
2023-04-25T07:30:39.794Z,99089.67
2023-04-25T07:32:52.030Z,99084.03
2023-04-25T07:35:03.650Z,99084.98
2023-04-25T07:37:13.690Z,99089.02
2023-04-25T07:39:24.419Z,99091.08
2023-04-25T07:41:38.648Z,99098.02
2023-04-25T07:43:56.026Z,99094.27
2023-04-25T07:46:07.846Z,99095.47
2023-04-25T07:48:18.885Z,99098.47
2023-04-25T07:50:35.672Z,99097.25
2023-04-25T07:52:50.168Z,99100.91
2023-04-25T07:55:01.490Z,99102.16
2023-04-25T07:57:12.316Z,99106.67
2023-04-25T07:59:24.447Z,99114.31
2023-04-25T08:01:38.694Z,99115.38
2023-04-25T08:03:54.289Z,99121.62
2023-04-25T08:06:12.481Z,99124.27
2023-04-25T08:08:26.442Z,99131.78
2023-04-25T08:10:42.687Z,99136.34
2023-04-25T08:12:56.686Z,99140.62
2023-04-25T08:15:07.965Z,99138.89
2023-04-25T08:17:19.205Z,99140.74
2023-04-25T08:19:31.997Z,99138.45
2023-04-25T08:21:48.736Z,99138.68
2023-04-25T08:24:06.507Z,99139.66
2023-04-25T08:26:17.969Z,99138.22
2023-04-25T08:28:30.049Z,99137.97
2023-04-25T08:30:43.098Z,99138.4
2023-04-25T08:32:54.430Z,99141.55
2023-04-25T08:35:06.178Z,99143.05
2023-04-25T08:37:18.550Z,99145.66
2023-04-25T08:39:30.859Z,99149
2023-04-25T08:41:44.460Z,99151.17
2023-04-25T08:43:54.730Z,99158.88
2023-04-25T08:46:04.939Z,99156.13
2023-04-25T08:48:14.910Z,99160.41
2023-04-25T08:50:28.750Z,99159.91
2023-04-25T08:52:38.826Z,99167.25
2023-04-25T08:54:50.465Z,99166.45
2023-04-25T08:57:00.724Z,99172.08
2023-04-25T08:59:12.110Z,99177.47
2023-04-25T09:01:27.783Z,99183.46
2023-04-25T09:03:39.213Z,99185.41
2023-04-25T09:05:49.984Z,99184.13
2023-04-25T09:08:03.448Z,99188.04
2023-04-25T09:10:17.250Z,99185.86
2023-04-25T09:12:42.726Z,99189.81
2023-04-25T09:14:56.499Z,99187.96
2023-04-25T09:17:08.188Z,99185.13
2023-04-25T09:19:18.460Z,99189.05
2023-04-25T09:21:49.001Z,99184.27
2023-04-25T09:23:59.403Z,99182.84
2023-04-25T09:26:11.745Z,99187.75
2023-04-25T09:28:23.122Z,99191.09
2023-04-25T09:30:38.749Z,99190.08
2023-04-25T09:32:48.347Z,99193.2
2023-04-25T09:34:59.161Z,99192.52
2023-04-25T09:40:18.866Z,99190.16
2023-04-25T09:42:51.500Z,99195.13
2023-04-25T09:45:04.460Z,99196.8
2023-04-25T09:47:19.565Z,99195.94
2023-04-25T09:49:31.588Z,99196.58
2023-04-25T09:51:43.171Z,99193.81
2023-04-25T09:53:55.006Z,99196.38
2023-04-25T09:56:05.353Z,99197.46
2023-04-25T09:58:17.087Z,99196.14
2023-04-25T10:00:27.251Z,99197.81
2023-04-25T10:02:39.625Z,99200.95
2023-04-25T10:04:52.394Z,99196.88
2023-04-25T10:07:07.779Z,99195.97
2023-04-25T10:09:20.976Z,99198.47
2023-04-25T10:11:32.550Z,99205.35
2023-04-25T10:13:43.131Z,99202.41
2023-04-25T10:15:53.995Z,99199.71
2023-04-25T10:18:06.439Z,99199.73
2023-04-25T10:20:19.623Z,99201.66
2023-04-25T10:22:30.878Z,99205.97
2023-04-25T10:24:42.074Z,99197.75
2023-04-25T10:26:54.609Z,99207.2
2023-04-25T10:29:05.331Z,99202.14
2023-04-25T10:31:20.319Z,99203.17
2023-04-25T10:33:33.192Z,99202.69
2023-04-25T10:35:48.768Z,99197.19
2023-04-25T10:38:00.044Z,99197.98
2023-04-25T10:40:12.578Z,99195.62
2023-04-25T10:42:30.473Z,99197.66
2023-04-25T10:44:44.047Z,99195.42
2023-04-25T10:47:01.856Z,99196.89
2023-04-25T10:49:22.156Z,99197.91
2023-04-25T10:51:59.193Z,99189.8
2023-04-25T10:54:15.525Z,99191.55
2023-04-25T10:57:01.040Z,99193.59
2023-04-25T10:59:52.068Z,99191.24
2023-04-25T11:02:13.052Z,99191.47
2023-04-25T11:04:48.700Z,99186.42
2023-04-25T11:07:22.129Z,99186.55
2023-04-25T11:09:43.137Z,99183.47
2023-04-25T11:12:15.491Z,99188.43
2023-04-25T11:17:03.430Z,99184.21
2023-04-25T11:19:18.291Z,99183.13
2023-04-25T11:21:40.755Z,99182.98
2023-04-25T11:24:04.830Z,99181.34
2023-04-25T11:26:22.877Z,99180.34
2023-04-25T11:28:47.131Z,99184.7
2023-04-25T11:31:03.210Z,99182.47
2023-04-25T11:33:35.313Z,99181.02
2023-04-25T11:39:31.202Z,99170.28
2023-04-25T11:47:39.663Z,99174.36
2023-04-25T11:49:54.635Z,99177.43
2023-04-25T11:52:05.713Z,99178.52
2023-04-25T11:54:18.848Z,99176.07
2023-04-25T11:56:32.995Z,99174.66
2023-04-25T11:58:43.551Z,99171.89
2023-04-25T12:00:55.233Z,99174.15
2023-04-25T12:03:21.672Z,99173.58
2023-04-25T12:05:37.672Z,99173.45
2023-04-25T12:07:49.931Z,99172.52
2023-04-25T12:10:01.322Z,99170.7
2023-04-25T12:12:15.434Z,99170.99
2023-04-25T12:14:28.423Z,99171.13
2023-04-25T12:16:40.251Z,99170.7
2023-04-25T12:18:55.937Z,99170.78
2023-04-25T12:21:08.629Z,99171.1
2023-04-25T12:23:21.479Z,99173.14
2023-04-25T12:25:36.175Z,99173.74
2023-04-25T12:27:52.369Z,99173.33
2023-04-25T12:30:06.516Z,99170.78
2023-04-25T12:32:17.910Z,99167.73
2023-04-25T12:34:29.432Z,99167.49
2023-04-25T12:36:42.392Z,99169.56
2023-04-25T12:38:56.232Z,99168.34
2023-04-25T12:41:23.176Z,99167.58
2023-04-25T12:43:38.051Z,99168.72
2023-04-25T12:45:53.512Z,99171.39
2023-04-25T12:48:06.693Z,99165.3
2023-04-25T12:50:30.332Z,99169.42
2023-04-25T12:52:42.798Z,99169.29
2023-04-25T12:54:55.731Z,99163.37
2023-04-25T12:57:12.232Z,99170.33
2023-04-25T12:59:28.652Z,99167.66
2023-04-25T13:01:40.522Z,99164.88
2023-04-25T13:03:53.079Z,99163.8
2023-04-25T13:06:04.392Z,99160.97
2023-04-25T13:08:17.062Z,99159.42
2023-04-25T13:10:28.694Z,99158.5
2023-04-25T13:12:44.714Z,99157.23
2023-04-25T13:14:56.683Z,99160.18
2023-04-25T13:17:15.931Z,99159.13
2023-04-25T13:19:32.070Z,99155.91
2023-04-25T13:21:47.681Z,99158.03
2023-04-25T13:24:01.632Z,99154.44
2023-04-25T13:26:13.890Z,99157.94
2023-04-25T13:28:24.130Z,99153.08
2023-04-25T13:30:39.017Z,99155.23
2023-04-25T13:32:53.274Z,99152.06
2023-04-25T13:35:17.112Z,99155.08
2023-04-25T13:37:45.790Z,99152
2023-04-25T13:39:55.949Z,99151.39
2023-04-25T13:42:07.934Z,99152.23
2023-04-25T13:44:19.049Z,99152.84
2023-04-25T13:46:48.152Z,99156.97
2023-04-25T13:49:15.452Z,99154.94
2023-04-25T13:51:32.137Z,99156.47
2023-04-25T13:53:45.359Z,99158.42
2023-04-25T13:55:57.616Z,99160.58
2023-04-25T13:58:09.357Z,99160.09
2023-04-25T14:00:20.328Z,99157.77
2023-04-25T14:02:34.436Z,99159.96
2023-04-25T14:04:47.690Z,99157.23
2023-04-25T14:06:58.330Z,99157.93
2023-04-25T14:09:09.430Z,99162.73
2023-04-25T14:11:23.866Z,99163.85
2023-04-25T14:13:37.530Z,99158.91
2023-04-25T14:15:52.186Z,99160.25
2023-04-25T14:18:03.848Z,99164.84
2023-04-25T14:20:16.543Z,99168.15
2023-04-25T14:22:28.183Z,99168.05
2023-04-25T14:24:40.059Z,99168.97
2023-04-25T14:26:56.686Z,99171.06
2023-04-25T14:29:09.058Z,99170.69
2023-04-25T14:31:25.178Z,99173.45
2023-04-25T14:33:42.658Z,99169.06
2023-04-25T14:36:05.431Z,99170.97
2023-04-25T14:38:18.740Z,99174.44
2023-04-25T14:40:33.787Z,99174.31
2023-04-25T14:42:45.749Z,99175.54
2023-04-25T14:45:04.330Z,99170.41
2023-04-25T14:47:25.993Z,99171.84
2023-04-25T14:49:44.371Z,99176.63
2023-04-25T14:52:01.308Z,99178.97
2023-04-25T14:54:26.302Z,99179.64
2023-04-25T14:56:40.516Z,99187.25
2023-04-25T14:58:59.335Z,99183.3
2023-04-25T15:01:13.772Z,99187.56
2023-04-25T15:03:42.800Z,99184.2
2023-04-25T15:05:58.594Z,99182.44
2023-04-25T15:08:10.235Z,99186.42
2023-04-25T15:10:26.518Z,99183.8
2023-04-25T15:12:39.039Z,99180.93
2023-04-25T15:14:58.721Z,99184.77
2023-04-25T15:17:14.255Z,99189.16
2023-04-25T15:19:33.556Z,99187.78
2023-04-25T15:22:01.593Z,99188.91
2023-04-25T15:24:45.521Z,99187.81
2023-04-25T15:27:12.355Z,99189.37
2023-04-25T15:29:54.538Z,99188.81
2023-04-25T15:36:08.174Z,99195.58
2023-04-25T15:42:16.820Z,99198.64
2023-04-25T15:44:45.497Z,99197.42
2023-04-25T15:50:22.740Z,99198.55
2023-04-25T15:52:54.562Z,99199.08
2023-04-25T16:02:09.714Z,99208.78
2023-04-25T16:05:05.490Z,99213.8
2023-04-25T16:07:49.417Z,99210.05
2023-04-25T16:10:00.196Z,99211.15
2023-04-25T16:12:13.776Z,99212.89
2023-04-25T16:14:42.574Z,99216.29
2023-04-25T16:17:25.302Z,99218.34
2023-04-25T16:22:46.955Z,99218.59
2023-04-25T16:25:34.815Z,99215.78
2023-04-25T16:28:13.850Z,99220.29
2023-04-25T16:31:03.139Z,99221.66
2023-04-25T16:33:54.779Z,99225.56
2023-04-25T16:36:28.896Z,99230.2
2023-04-25T16:38:51.209Z,99237.31
2023-04-25T16:41:04.113Z,99235.42
2023-04-25T16:43:46.469Z,99237.09
2023-04-25T16:46:26.450Z,99242.86
2023-04-25T16:49:07.753Z,99243.38
2023-04-25T16:51:46.269Z,99248.81
2023-04-25T16:54:34.574Z,99249.81
2023-04-25T16:57:22.616Z,99253.16
2023-04-25T16:59:49.191Z,99252.11
2023-04-25T17:02:37.951Z,99255.09
2023-04-25T17:05:15.774Z,99253.63
2023-04-25T17:08:03.173Z,99258.58
2023-04-25T17:14:07.543Z,99265.82
2023-04-25T17:32:05.209Z,99274.34
2023-04-25T17:40:43.148Z,99285.48
2023-04-25T17:45:39.896Z,99291.42
2023-04-25T17:51:21.779Z,99304.98
2023-04-25T17:54:38.737Z,99308.88
2023-04-25T18:11:20.480Z,99329.51
2023-04-25T18:34:08.546Z,99343.48
2023-04-25T18:50:20.844Z,99374.48
2023-04-25T18:53:12.953Z,99377.4
2023-04-25T18:59:21.143Z,99383.55
2023-04-25T19:08:49.691Z,99388.09
2023-04-25T19:11:55.587Z,99387.28
2023-04-25T19:24:36.742Z,99397.82
2023-04-25T19:36:22.514Z,99397.56
2023-04-25T19:39:16.226Z,99399.06
2023-04-25T19:48:16.479Z,99399.8
2023-04-25T19:53:55.071Z,99400.61
2023-04-25T19:56:47.514Z,99397.8
2023-04-25T20:05:54.951Z,99394.54
2023-04-25T20:16:54.099Z,99390.23
2023-04-25T20:25:40.404Z,99396.17
2023-04-25T20:28:30.558Z,99398.94
2023-04-25T20:31:08.783Z,99399.3
2023-04-25T20:33:42.810Z,99399.03
2023-04-25T20:39:13.379Z,99394.43
2023-04-25T20:41:48.547Z,99394.92
2023-04-25T20:44:23.450Z,99401.66
2023-04-25T20:49:44.488Z,99408.88
2023-04-25T20:52:05.268Z,99404.61
2023-04-25T20:57:19.218Z,99406.61
2023-04-25T21:00:03.453Z,99404.04
2023-04-25T21:02:30.221Z,99401.56
2023-04-25T21:07:38.777Z,99404.69
2023-04-25T21:10:19.023Z,99400.7
2023-04-25T21:16:41.410Z,99402.48
2023-04-25T21:19:05.802Z,99401.34
2023-04-25T21:21:48.692Z,99401.69
2023-04-25T21:26:53.217Z,99396.63
2023-04-25T21:29:38.293Z,99397.77
2023-04-25T21:35:18.239Z,99399.76
2023-04-25T21:40:26.350Z,99393
2023-04-25T21:43:17.238Z,99390.7
2023-04-25T21:48:43.615Z,99389.06
2023-04-25T21:51:35.239Z,99393.34
2023-04-25T21:54:00.818Z,99392.52
2023-04-25T21:59:17.994Z,99390.94
2023-04-25T22:04:46.116Z,99393.42
2023-04-25T22:07:11.834Z,99394.63
2023-04-25T22:10:02.854Z,99392.5
2023-04-25T22:15:07.156Z,99401.61
2023-04-25T22:20:38.108Z,99408.94
2023-04-25T22:23:22.011Z,99404.09
2023-04-25T22:25:57.229Z,99409.19
2023-04-25T22:28:38.305Z,99408.09
2023-04-25T22:34:19.169Z,99412.3
2023-04-25T22:36:49.314Z,99417.77
2023-04-25T22:39:14.541Z,99418.84
2023-04-25T22:41:57.844Z,99416.03
2023-04-25T22:50:47.923Z,99422.42
2023-04-25T22:55:55.623Z,99420.22
2023-04-25T22:58:33.681Z,99424.34
2023-04-25T23:03:59.403Z,99422.28
2023-04-25T23:06:21.613Z,99426.25
2023-04-25T23:09:15.665Z,99426.75
2023-04-25T23:11:55.074Z,99427.23
2023-04-25T23:14:26.359Z,99431.03
2023-04-25T23:19:30.725Z,99430.22
2023-04-25T23:21:55.954Z,99429.88
2023-04-25T23:24:28.313Z,99432.19
2023-04-25T23:27:08.666Z,99434.4
2023-04-25T23:29:28.477Z,99440.59
2023-04-25T23:31:47.351Z,99443.39
2023-04-25T23:34:14.036Z,99452.2
2023-04-25T23:36:29.289Z,99452.27
2023-04-25T23:39:01.627Z,99455.4
2023-04-25T23:41:18.606Z,99457.72
2023-04-25T23:44:00.760Z,99455.41
2023-04-25T23:46:40.044Z,99452.3
2023-04-25T23:48:59.871Z,99452.52
2023-04-25T23:51:17.839Z,99455.08
2023-04-25T23:54:05.535Z,99453.86
2023-04-25T23:56:20.154Z,99458.05
2023-04-25T23:59:09.707Z,99458.55
